Time;durP1;ratioP1;P1;durP2;ratioP2;P2;SDS_P1;SDS_P2;PMS_P1;PMS_P2;Temp;Humidity;BMP_temperature;BMP_pressure;BME280_temperature;BME280_humidity;BME280_pressure;Samples;Min_cycle;Max_cycle;Signal;HPM_P1;HPM_P2
2023/03/28 00:00:19;;;;;;;9.50;4.13;;;;;;;7.44;100.00;98957.06;5052481;28;20025;-67
2023/03/28 00:02:44;;;;;;;6.25;3.72;;;;;;;7.52;100.00;99003.47;5052405;28;20163;-68
2023/03/28 00:05:10;;;;;;;6.05;3.35;;;;;;;7.39;100.00;99004.81;5052319;28;20021;-69
2023/03/28 00:07:36;;;;;;;5.93;3.70;;;;;;;7.35;100.00;99015.84;5050954;28;20040;-69
2023/03/28 00:10:02;;;;;;;5.78;3.45;;;;;;;7.27;100.00;99006.25;5052578;28;20033;-68
2023/03/28 00:12:28;;;;;;;6.25;3.97;;;;;;;7.41;100.00;99016.91;5052547;28;20402;-65
2023/03/28 00:14:56;;;;;;;5.97;3.53;;;;;;;7.42;100.00;99013.47;5052754;28;20040;-68
2023/03/28 00:17:23;;;;;;;6.13;3.35;;;;;;;7.45;100.00;99012.69;5052250;28;20411;-69
2023/03/28 00:19:49;;;;;;;5.70;3.53;;;;;;;7.21;100.00;98969.28;5051994;28;20085;-67
2023/03/28 00:22:15;;;;;;;5.90;3.85;;;;;;;7.39;100.00;99008.28;5052329;28;20013;-67
2023/03/28 00:24:40;;;;;;;5.63;3.53;;;;;;;7.40;100.00;99016.84;5052486;28;20029;-68
2023/03/28 00:27:06;;;;;;;6.10;3.33;;;;;;;7.01;100.00;98955.94;5052126;28;20021;-69
2023/03/28 00:29:33;;;;;;;5.28;3.50;;;;;;;7.34;100.00;99008.97;5052196;28;20031;-69
2023/03/28 00:31:58;;;;;;;5.78;3.40;;;;;;;7.34;100.00;99022.69;5046467;28;20096;-68
2023/03/28 00:34:24;;;;;;;4.30;3.13;;;;;;;7.24;100.00;98998.47;5044748;28;20074;-66
2023/03/28 00:36:52;;;;;;;5.47;2.85;;;;;;;7.34;100.00;99019.25;5052320;28;20032;-67
2023/03/28 00:39:18;;;;;;;5.63;3.55;;;;;;;7.32;100.00;99010.66;5052005;28;20098;-69
2023/03/28 00:41:44;;;;;;;7.78;4.00;;;;;;;7.34;100.00;99008.97;5051092;28;20487;-68
2023/03/28 00:44:37;;;;;;;5.68;3.42;;;;;;;7.38;100.00;99013.38;5051352;28;20041;-69
2023/03/28 00:47:03;;;;;;;4.60;3.08;;;;;;;7.37;100.00;99009.06;5051336;28;20029;-67
2023/03/28 00:49:28;;;;;;;5.93;3.90;;;;;;;7.49;100.00;99014.53;5051929;28;20102;-68
2023/03/28 00:52:00;;;;;;;8.20;3.67;;;;;;;7.37;100.00;99007.38;5051984;28;20045;-71
2023/03/28 00:54:29;;;;;;;7.13;3.88;;;;;;;7.40;100.00;99011.69;5051735;28;20033;-68
2023/03/28 00:56:58;;;;;;;5.05;3.85;;;;;;;7.33;100.00;99004.66;5051737;28;20033;-66
2023/03/28 00:59:27;;;;;;;7.53;4.28;;;;;;;7.09;100.00;98970.72;5051159;28;20033;-68
2023/03/28 01:01:57;;;;;;;5.30;3.70;;;;;;;7.20;100.00;99006.03;5051588;28;20025;-66
2023/03/28 01:04:26;;;;;;;6.45;3.90;;;;;;;6.95;100.00;98952.38;5051942;28;20064;-69
2023/03/28 01:06:55;;;;;;;6.15;4.10;;;;;;;6.86;100.00;98936.72;5051662;28;20029;-68
2023/03/28 01:09:22;;;;;;;;;;;;;;;7.20;100.00;98994.09;5052167;28;20040;-67
2023/03/28 01:11:49;;;;;;;7.00;4.15;;;;;;;7.15;100.00;98994.78;5050682;28;20512;-68
2023/03/28 01:14:19;;;;;;;5.97;4.18;;;;;;;6.99;100.00;98967.84;5051298;28;20542;-65
2023/03/28 01:16:46;;;;;;;6.15;4.10;;;;;;;7.06;100.00;98980.03;5051342;28;20076;-68
2023/03/28 01:19:49;;;;;;;5.13;3.90;;;;;;;7.07;100.00;98997.16;5051224;28;20025;-67
2023/03/28 01:22:20;;;;;;;5.18;3.80;;;;;;;7.07;100.00;99002.28;5051523;28;20029;-67
2023/03/28 01:25:27;;;;;;;5.35;3.45;;;;;;;7.11;100.00;99010.09;5051120;28;20036;-66
2023/03/28 01:28:04;;;;;;;5.63;3.75;;;;;;;7.07;100.00;99010.84;4969858;28;20046;-68
2023/03/28 01:30:47;;;;;;;5.50;3.90;;;;;;;7.12;100.00;99005.84;4969517;28;20043;-67
2023/03/28 01:33:39;;;;;;;5.57;4.15;;;;;;;7.13;100.00;99002.47;4969696;28;20086;-69
2023/03/28 01:36:16;;;;;;;5.03;3.65;;;;;;;7.15;100.00;99021.31;4969986;28;20137;-66
2023/03/28 01:39:03;;;;;;;5.50;3.00;;;;;;;7.12;100.00;99003.28;4969356;28;20171;-68
2023/03/28 01:41:49;;;;;;;5.10;3.35;;;;;;;7.07;100.00;99020.25;4969773;28;20121;-65
2023/03/28 01:44:32;;;;;;;4.22;3.05;;;;;;;7.05;100.00;99012.53;4969492;28;20038;-69
2023/03/28 01:47:06;;;;;;;5.50;3.28;;;;;;;7.11;100.00;99028.06;4969746;28;20023;-64
2023/03/28 01:49:34;;;;;;;4.57;3.55;;;;;;;7.13;100.00;99023.84;4969184;28;20500;-68
2023/03/28 01:52:17;;;;;;;5.57;3.10;;;;;;;7.10;100.00;99023.78;4969819;28;20094;-68
2023/03/28 01:55:05;;;;;;;3.75;2.92;;;;;;;7.09;100.00;99029.72;4969526;28;20042;-67
2023/03/28 01:57:36;;;;;;;4.22;3.13;;;;;;;7.15;100.00;99034.16;4969374;28;20448;-68
2023/03/28 02:00:23;;;;;;;4.07;2.88;;;;;;;7.19;100.00;99040.22;4969063;28;20528;-68
2023/03/28 02:03:23;;;;;;;5.82;2.80;;;;;;;7.21;100.00;99043.72;4969592;28;20063;-69
2023/03/28 02:05:52;;;;;;;3.83;2.83;;;;;;;7.18;100.00;99057.34;5000733;28;20130;-66
2023/03/28 02:08:20;;;;;;;5.30;2.42;;;;;;;7.17;100.00;99050.47;5007536;28;20558;-67
2023/03/28 02:10:48;;;;;;;5.38;2.83;;;;;;;6.88;100.00;99009.47;5007829;28;20129;-68
2023/03/28 02:13:18;;;;;;;3.40;2.40;;;;;;;7.15;100.00;99062.38;5008333;28;20109;-69
2023/03/28 02:15:46;;;;;;;;;;;;;;;7.19;100.00;99064.22;4991963;28;20060;-68
2023/03/28 02:18:19;;;;;;;1.90;1.60;;;;;;;7.15;100.00;99064.09;5007815;28;19943;-69
2023/03/28 02:20:52;;;;;;;2.40;1.65;;;;;;;7.10;100.00;99069.97;5007684;28;20037;-68
2023/03/28 02:23:22;;;;;;;1.83;1.33;;;;;;;6.93;100.00;99058.38;4994780;28;20034;-63
2023/03/28 02:25:48;;;;;;;2.10;1.60;;;;;;;6.84;100.00;99058.06;4987904;28;20030;-69
2023/03/28 02:28:16;;;;;;;2.50;1.80;;;;;;;6.71;100.00;99051.72;4988404;28;20053;-67
2023/03/28 02:30:41;;;;;;;2.50;1.63;;;;;;;6.71;100.00;99064.56;4988692;28;20045;-70
2023/03/28 02:33:29;;;;;;;2.13;1.48;;;;;;;6.64;100.00;99066.03;4984676;28;20034;-72
2023/03/28 02:35:57;;;;;;;2.58;1.90;;;;;;;6.54;100.00;99069.16;4987684;28;20165;-72
2023/03/28 02:38:42;;;;;;;1.65;1.27;;;;;;;6.44;100.00;99075.69;4988356;28;20497;-71
2023/03/28 02:41:40;;;;;;;4.22;1.85;;;;;;;6.20;100.00;99040.78;5013029;28;20048;-68
2023/03/28 02:44:11;;;;;;;2.08;1.42;;;;;;;6.32;100.00;99078.75;5007431;28;20041;-69
2023/03/28 02:46:53;;;;;;;2.75;2.25;;;;;;;5.96;100.00;99023.78;5007500;28;20128;-70
2023/03/28 02:49:26;;;;;;;3.30;2.38;;;;;;;6.16;100.00;99069.72;5006984;28;20467;-72
2023/03/28 02:52:16;;;;;;;2.95;1.48;;;;;;;6.19;100.00;99094.56;5007140;28;20042;-71
2023/03/28 02:54:55;;;;;;;3.30;2.40;;;;;;;6.14;100.00;99096.97;5007548;28;20184;-73
2023/03/28 02:57:35;;;;;;;2.13;1.58;;;;;;;6.08;100.00;99097.66;5007348;28;20045;-73
2023/03/28 03:00:09;;;;;;;;;;;;;;;6.11;100.00;99104.56;5007982;28;20066;-71
2023/03/28 03:02:35;;;;;;;5.65;2.05;;;;;;;5.99;100.00;99094.78;5007217;28;19918;-70
2023/03/28 03:05:00;;;;;;;1.55;1.45;;;;;;;5.87;100.00;99102.91;5005151;28;20052;-71
2023/03/28 03:07:27;;;;;;;2.88;1.73;;;;;;;5.60;100.00;99069.56;5006749;28;20465;-70
2023/03/28 03:09:52;;;;;;;2.80;2.08;;;;;;;5.78;100.00;99117.94;5007440;28;20058;-70
2023/03/28 03:12:19;;;;;;;3.00;2.53;;;;;;;5.69;100.00;99117.66;5007292;28;20030;-71
2023/03/28 03:14:45;;;;;;;2.42;2.10;;;;;;;5.66;100.00;99123.53;5006850;28;20484;-69
2023/03/28 03:17:10;;;;;;;2.60;1.80;;;;;;;5.51;100.00;99116.19;5006947;28;20129;-69
2023/03/28 03:19:36;;;;;;;2.50;2.00;;;;;;;5.61;100.00;99132.75;5007231;28;20030;-72
2023/03/28 03:22:02;;;;;;;2.72;2.33;;;;;;;5.54;100.00;99118.84;5031675;28;20120;-71
2023/03/28 03:24:28;;;;;;;2.40;1.65;;;;;;;5.54;100.00;99143.59;5049350;28;20486;-71
2023/03/28 03:26:53;;;;;;;2.95;1.88;;;;;;;5.48;100.00;99159.56;5048247;28;20040;-70
2023/03/28 03:29:19;;;;;;;3.50;2.63;;;;;;;5.39;100.00;99156.69;5049237;28;20386;-70
2023/03/28 03:31:45;;;;;;;3.00;2.20;;;;;;;5.33;100.00;99168.47;5049211;28;20025;-69
2023/03/28 03:34:10;;;;;;;1.55;1.40;;;;;;;5.31;100.00;99167.53;5049322;28;20025;-71
2023/03/28 03:36:36;;;;;;;13.32;2.50;;;;;;;5.22;100.00;99177.44;5048883;28;20052;-71
2023/03/28 03:39:02;;;;;;;4.68;2.17;;;;;;;5.18;100.00;99188.34;5049153;28;20082;-70
2023/03/28 03:41:28;;;;;;;2.22;1.85;;;;;;;5.16;100.00;99188.28;5049107;28;20025;-69
2023/03/28 03:43:53;;;;;;;3.47;2.33;;;;;;;5.15;100.00;99181.41;5047975;28;20475;-70
2023/03/28 03:46:19;;;;;;;4.30;1.95;;;;;;;5.00;100.00;99191.09;5049202;28;20131;-71
2023/03/28 03:48:44;;;;;;;4.40;3.17;;;;;;;4.49;100.00;99126.06;5049384;28;20031;-68
2023/03/28 03:51:09;;;;;;;4.68;2.42;;;;;;;4.83;100.00;99203.19;5049054;28;20116;-70
2023/03/28 03:53:35;;;;;;;4.63;2.63;;;;;;;4.82;100.00;99201.44;5048700;28;20143;-71
2023/03/28 03:56:01;;;;;;;3.60;2.55;;;;;;;4.79;100.00;99206.47;5049289;28;20033;-72
2023/03/28 03:58:26;;;;;;;4.05;2.83;;;;;;;4.75;100.00;99230.13;5048941;28;20085;-70
2023/03/28 04:00:52;;;;;;;4.20;2.92;;;;;;;4.71;100.00;99226.63;5039056;28;20502;-71
2023/03/28 04:03:18;;;;;;;5.85;3.38;;;;;;;4.64;100.00;99214.38;5067494;28;20033;-71
2023/03/28 04:05:43;;;;;;;4.30;3.13;;;;;;;4.63;100.00;99216.06;5049161;28;20027;-71
2023/03/28 04:08:09;;;;;;;4.05;3.25;;;;;;;4.46;100.00;99217.06;5049046;28;20021;-69
2023/03/28 04:10:36;;;;;;;8.30;4.65;;;;;;;4.55;100.00;99240.44;5049170;28;20021;-72
2023/03/28 04:13:02;;;;;;;6.55;4.05;;;;;;;4.15;100.00;99172.34;5048891;28;20021;-71
2023/03/28 04:15:27;;;;;;;4.60;3.70;;;;;;;4.38;100.00;99250.81;5048934;28;20033;-70
2023/03/28 04:17:55;;;;;;;6.32;5.20;;;;;;;4.45;100.00;99243.41;5050375;28;20453;-68
2023/03/28 04:20:25;;;;;;;4.97;3.92;;;;;;;4.35;100.00;99260.06;5052307;28;20025;-72
2023/03/28 04:22:52;;;;;;;4.10;3.13;;;;;;;4.17;100.00;99230.34;5033986;28;20091;-71
2023/03/28 04:25:18;;;;;;;4.05;2.97;;;;;;;4.21;100.00;99278.22;5052386;28;20025;-73
2023/03/28 04:27:46;;;;;;;5.60;4.50;;;;;;;4.21;100.00;99272.22;5050940;28;20025;-69
2023/03/28 04:30:16;;;;;;;5.47;4.22;;;;;;;4.14;100.00;99276.22;5050885;28;20078;-71
2023/03/28 04:32:48;;;;;;;5.18;3.95;;;;;;;4.12;100.00;99272.72;5052416;28;20033;-70
2023/03/28 04:35:15;;;;;;;7.25;4.45;;;;;;;4.12;100.00;99276.97;5052365;28;20040;-70
2023/03/28 04:37:41;;;;;;;5.28;4.40;;;;;;;3.81;100.00;99250.06;5052297;28;20040;-72
2023/03/28 04:40:10;;;;;;;9.13;3.85;;;;;;;4.07;100.00;99298.88;5042997;28;20056;-69
2023/03/28 04:42:37;;;;;;;4.80;3.67;;;;;;;3.98;100.00;99297.66;5047122;28;20732;-71
2023/03/28 04:45:05;;;;;;;6.53;4.72;;;;;;;4.05;100.00;99306.47;5050903;28;20041;-68
2023/03/28 04:47:30;;;;;;;4.97;4.32;;;;;;;3.82;100.00;99303.75;5051830;28;20060;-68
2023/03/28 04:49:57;;;;;;;5.95;4.40;;;;;;;3.43;100.00;99216.03;5045109;28;20120;-72
2023/03/28 04:52:22;;;;;;;5.93;4.15;;;;;;;3.95;100.00;99317.06;5049468;28;20036;-72
2023/03/28 04:54:48;;;;;;;7.07;4.25;;;;;;;3.87;100.00;99317.59;5051374;28;20029;-72
2023/03/28 04:57:13;;;;;;;7.90;3.90;;;;;;;3.81;100.00;99316.44;5052431;28;20033;-72
2023/03/28 04:59:39;;;;;;;6.22;3.88;;;;;;;3.83;100.00;99330.16;5051783;28;20486;-71
2023/03/28 05:02:05;;;;;;;4.78;3.58;;;;;;;3.71;100.00;99317.72;5051380;28;20415;-72
2023/03/28 05:04:31;;;;;;;7.50;4.30;;;;;;;3.81;100.00;99331.78;5052133;28;20479;-71
2023/03/28 05:06:58;;;;;;;4.28;3.22;;;;;;;3.48;100.00;99297.13;5046664;28;20037;-71
2023/03/28 05:09:23;;;;;;;4.78;4.18;;;;;;;3.66;100.00;99321.72;5050076;28;20036;-70
2023/03/28 05:11:49;;;;;;;4.63;3.42;;;;;;;3.62;100.00;99330.06;5044874;28;20037;-69
2023/03/28 05:14:15;;;;;;;6.78;5.05;;;;;;;3.16;100.00;99240.38;5051581;28;20025;-68
2023/03/28 05:16:40;;;;;;;7.80;5.88;;;;;;;3.74;100.00;99348.50;5050143;28;20051;-68
2023/03/28 05:19:06;;;;;;;6.07;4.13;;;;;;;3.69;100.00;99340.63;5042813;28;20150;-68
2023/03/28 05:21:31;;;;;;;6.00;3.83;;;;;;;3.68;100.00;99343.09;5051384;28;20376;-70
2023/03/28 05:23:57;;;;;;;4.80;3.30;;;;;;;3.51;100.00;99322.75;5051081;28;20027;-71
2023/03/28 05:26:22;;;;;;;5.00;3.65;;;;;;;3.65;100.00;99355.72;5051480;28;20390;-69
2023/03/28 05:28:48;;;;;;;9.20;5.40;;;;;;;3.28;100.00;99282.53;5048949;28;20406;-69
2023/03/28 05:31:16;;;;;;;5.55;4.25;;;;;;;3.90;100.00;99375.59;5044459;28;20033;-72
2023/03/28 05:33:41;;;;;;;9.13;6.60;;;;;;;3.65;100.00;99337.84;5048222;28;20124;-69
2023/03/28 05:36:07;;;;;;;5.88;4.38;;;;;;;3.87;100.00;99378.88;5031030;28;20167;-73
2023/03/28 05:38:33;;;;;;;3.60;2.70;;;;;;;3.98;100.00;99398.94;5050239;28;20475;-70
2023/03/28 05:40:58;;;;;;;5.18;3.40;;;;;;;4.04;100.00;99414.53;5051563;28;20036;-75
2023/03/28 05:43:24;;;;;;;5.65;3.85;;;;;;;3.98;100.00;99402.34;5051419;28;20036;-70
2023/03/28 05:45:49;;;;;;;9.32;4.95;;;;;;;4.03;100.00;99402.56;5050470;28;20028;-74
2023/03/28 05:48:15;;;;;;;5.13;3.75;;;;;;;4.04;100.00;99415.41;5051045;28;20463;-74
2023/03/28 05:50:43;;;;;;;4.80;3.65;;;;;;;4.09;100.00;99410.50;5045319;28;20033;-73
2023/03/28 05:53:09;;;;;;;6.07;3.85;;;;;;;4.15;100.00;99420.13;5043835;28;20024;-75
2023/03/28 05:55:35;;;;;;;5.38;3.28;;;;;;;4.10;100.00;99416.47;5051002;28;20510;-69
2023/03/28 05:58:00;;;;;;;4.30;3.63;;;;;;;4.08;100.00;99392.56;5050621;28;20032;-72
2023/03/28 06:00:27;;;;;;;8.80;3.25;;;;;;;4.07;100.00;99418.91;5050644;28;20098;-70
2023/03/28 06:02:53;;;;;;;6.13;3.75;;;;;;;4.06;100.00;99435.91;5050555;28;20770;-71
2023/03/28 06:05:19;;;;;;;4.18;3.20;;;;;;;4.13;100.00;99431.97;5028618;28;20034;-72
2023/03/28 06:07:45;;;;;;;4.75;3.20;;;;;;;4.14;100.00;99441.38;5028070;28;20048;-71
2023/03/28 06:10:13;;;;;;;7.47;4.70;;;;;;;4.23;100.00;99438.38;5028393;28;20037;-72
2023/03/28 06:12:40;;;;;;;8.52;2.70;;;;;;;4.28;100.00;99435.22;5028638;28;20029;-70
2023/03/28 06:15:07;;;;;;;5.50;2.40;;;;;;;3.87;100.00;99370.34;5028515;28;20503;-75
2023/03/28 06:17:32;;;;;;;5.18;2.90;;;;;;;4.03;100.00;99407.69;5028190;28;20220;-69
2023/03/28 06:19:58;;;;;;;3.92;3.05;;;;;;;4.33;100.00;99430.31;5028412;28;20481;-69
2023/03/28 06:22:23;;;;;;;4.80;2.58;;;;;;;4.35;100.00;99438.94;5010924;28;20041;-73
2023/03/28 06:24:49;;;;;;;2.83;2.50;;;;;;;4.44;100.00;99428.25;5028191;28;20076;-69
2023/03/28 06:27:14;;;;;;;3.28;2.97;;;;;;;4.45;100.00;99458.97;5011603;28;20041;-76
2023/03/28 06:29:40;;;;;;;6.43;3.35;;;;;;;4.45;100.00;99461.53;5028328;28;20148;-70
2023/03/28 06:32:05;;;;;;;2.78;2.13;;;;;;;4.53;100.00;99465.28;5028185;28;20042;-72
2023/03/28 06:34:31;;;;;;;4.93;3.55;;;;;;;4.50;100.00;99454.94;5028181;28;20061;-73
2023/03/28 06:36:58;;;;;;;5.95;3.67;;;;;;;4.65;100.00;99472.66;5043075;28;20590;-72
2023/03/28 06:39:23;;;;;;;4.47;2.88;;;;;;;4.84;100.00;99479.44;5037143;28;20052;-69
2023/03/28 06:41:49;;;;;;;4.68;3.53;;;;;;;4.66;100.00;99430.94;5029864;28;20593;-71
2023/03/28 06:44:15;;;;;;;4.45;3.20;;;;;;;5.08;100.00;99491.53;5032698;28;20033;-76
2023/03/28 06:46:40;;;;;;;2.10;1.90;;;;;;;5.21;100.00;99490.41;5050520;28;20521;-71
2023/03/28 06:49:06;;;;;;;2.70;1.90;;;;;;;5.29;100.00;99475.38;5044037;28;20044;-77
2023/03/28 06:51:31;;;;;;;2.47;1.92;;;;;;;5.13;100.00;99445.69;5048142;28;20032;-70
2023/03/28 06:53:57;;;;;;;4.15;2.20;;;;;;;5.23;100.00;99504.13;5049727;28;20025;-68
2023/03/28 06:56:22;;;;;;;3.13;2.00;;;;;;;5.40;100.00;99512.53;5050399;28;20029;-72
2023/03/28 06:58:48;;;;;;;2.80;2.30;;;;;;;5.32;100.00;99503.63;5049989;28;20033;-70
2023/03/28 07:01:13;;;;;;;2.22;1.80;;;;;;;5.44;100.00;99498.16;5050245;28;20032;-74
2023/03/28 07:03:38;;;;;;;1.77;1.42;;;;;;;5.13;99.68;99510.50;5050241;28;20028;-69
2023/03/28 07:06:06;;;;;;;2.40;1.67;;;;;;;5.15;99.07;99536.19;5050388;28;20020;-70
2023/03/28 07:08:32;;;;;;;2.72;1.77;;;;;;;5.31;100.00;99518.13;5050343;28;20029;-70
2023/03/28 07:10:57;;;;;;;7.85;1.60;;;;;;;5.28;100.00;99524.78;5050331;28;20026;-71
2023/03/28 07:13:23;;;;;;;3.55;2.30;;;;;;;5.25;100.00;99510.19;5050345;28;20491;-69
2023/03/28 07:16:10;;;;;;;3.05;1.60;;;;;;;5.40;100.00;99529.56;5050308;28;20029;-69
2023/03/28 07:18:36;;;;;;;2.78;1.45;;;;;;;5.58;100.00;99548.28;5050178;28;20057;-71
2023/03/28 07:21:08;;;;;;;1.40;1.30;;;;;;;5.70;99.25;99536.78;5049959;28;20146;-68
2023/03/28 07:23:34;;;;;;;1.85;1.50;;;;;;;6.02;98.19;99548.38;5049795;28;20472;-70
2023/03/28 07:26:01;;;;;;;3.17;2.25;;;;;;;6.45;99.30;99550.03;5050308;28;20071;-71
2023/03/28 07:28:26;;;;;;;5.72;2.00;;;;;;;6.44;99.49;99538.06;5050084;28;20052;-70
2023/03/28 07:30:53;;;;;;;5.35;2.05;;;;;;;6.42;95.77;99536.25;5050055;28;20033;-69
2023/03/28 07:33:19;;;;;;;2.92;2.28;;;;;;;6.36;96.37;99533.47;5050009;28;20040;-73
2023/03/28 07:35:44;;;;;;;3.05;1.52;;;;;;;6.16;93.49;99551.50;5049992;28;20025;-71
2023/03/28 07:38:10;;;;;;;4.88;1.80;;;;;;;6.12;93.78;99570.13;5049886;28;20488;-72
2023/03/28 07:40:36;;;;;;;1.58;1.48;;;;;;;6.26;93.62;99527.09;5050161;28;20037;-69
2023/03/28 07:43:01;;;;;;;2.20;1.33;;;;;;;6.40;93.98;99563.53;5049993;28;20496;-70
2023/03/28 07:45:27;;;;;;;4.38;1.63;;;;;;;6.40;94.56;99559.25;5050008;28;20513;-70
2023/03/28 07:47:52;;;;;;;1.83;1.42;;;;;;;5.94;92.84;99496.81;5050048;28;20036;-70
2023/03/28 07:50:18;;;;;;;1.77;1.27;;;;;;;6.29;93.42;99558.84;5049477;28;20475;-70
2023/03/28 07:52:45;;;;;;;3.83;2.08;;;;;;;6.24;92.76;99554.34;5052212;28;20479;-71
2023/03/28 07:55:12;;;;;;;2.53;1.80;;;;;;;6.35;94.78;99547.09;5053851;28;20032;-69
2023/03/28 07:57:38;;;;;;;5.30;1.77;;;;;;;6.29;92.83;99546.03;5051258;28;20392;-70
2023/03/28 08:00:14;;;;;;;2.55;1.77;;;;;;;6.35;91.85;99557.34;5053382;28;20040;-69
2023/03/28 08:02:40;;;;;;;3.53;2.00;;;;;;;6.30;92.98;99558.00;5053223;28;20040;-74
2023/03/28 08:05:06;;;;;;;2.85;1.38;;;;;;;6.28;92.18;99559.66;5053685;28;20143;-68
2023/03/28 08:07:33;;;;;;;5.47;1.90;;;;;;;6.56;92.20;99558.16;5053537;28;20501;-71
2023/03/28 08:09:59;;;;;;;3.00;2.15;;;;;;;6.45;92.80;99498.75;5053115;28;20112;-72
2023/03/28 08:12:24;;;;;;;4.13;2.75;;;;;;;6.60;92.65;99508.75;5053408;28;20111;-68
2023/03/28 08:14:50;;;;;;;5.53;1.90;;;;;;;7.26;93.44;99571.88;5053397;28;20115;-70
2023/03/28 08:17:15;;;;;;;4.38;2.55;;;;;;;7.33;93.53;99567.81;5053097;28;20064;-70
2023/03/28 08:19:41;;;;;;;7.45;2.60;;;;;;;7.01;92.00;99503.38;5052874;28;20028;-71
2023/03/28 08:22:06;;;;;;;7.45;3.13;;;;;;;7.54;89.77;99580.53;5051784;28;20149;-69
2023/03/28 08:24:32;;;;;;;3.45;2.35;;;;;;;7.11;89.28;99596.97;5053232;28;20541;-71
2023/03/28 08:26:57;;;;;;;3.38;2.15;;;;;;;7.28;90.26;99602.72;5053231;28;20449;-71
2023/03/28 08:29:23;;;;;;;3.47;2.33;;;;;;;7.23;89.23;99605.13;5053125;28;20068;-69
2023/03/28 08:31:48;;;;;;;3.50;2.30;;;;;;;7.23;89.54;99587.16;5053274;28;20033;-73
2023/03/28 08:34:14;;;;;;;2.83;2.08;;;;;;;7.47;88.40;99591.41;5052821;28;20083;-69
2023/03/28 08:36:40;;;;;;;2.90;2.40;;;;;;;7.65;88.62;99609.16;5051703;28;20112;-69
2023/03/28 08:39:06;;;;;;;2.17;1.85;;;;;;;7.76;87.50;99582.16;5052983;28;20036;-70
2023/03/28 08:42:09;;;;;;;5.32;2.38;;;;;;;7.67;86.45;99588.66;5053035;28;20032;-70
2023/03/28 08:44:49;;;;;;;3.63;2.58;;;;;;;7.73;88.55;99589.72;5052897;28;20067;-72
2023/03/28 08:47:24;;;;;;;4.82;2.15;;;;;;;7.68;86.77;99593.00;5053064;28;20128;-69
2023/03/28 08:50:02;;;;;;;4.47;2.40;;;;;;;7.61;87.92;99581.59;5052832;28;20025;-70
2023/03/28 08:52:28;;;;;;;3.97;2.67;;;;;;;7.87;86.99;99600.47;5052642;28;20033;-70
2023/03/28 08:55:36;;;;;;;2.50;1.85;;;;;;;7.63;84.55;99607.34;5052785;28;20032;-72
2023/03/28 08:58:03;;;;;;;4.25;2.78;;;;;;;7.85;84.96;99608.97;4990605;28;20039;-74
2023/03/28 09:00:38;;;;;;;4.55;2.33;;;;;;;8.16;87.20;99612.56;4990597;28;20080;-70
2023/03/28 09:03:12;;;;;;;3.10;2.20;;;;;;;8.14;83.06;99599.66;4990008;28;20101;-69
2023/03/28 09:05:55;;;;;;;3.13;2.00;;;;;;;8.37;83.77;99596.94;4990487;28;20561;-74
2023/03/28 09:09:03;;;;;;;2.95;2.10;;;;;;;8.45;82.78;99623.78;4990323;28;20161;-70
2023/03/28 09:11:43;;;;;;;2.28;1.83;;;;;;;8.69;81.25;99626.28;4913470;29;20048;-72
2023/03/28 09:14:51;;;;;;;2.47;1.73;;;;;;;8.67;82.10;99622.81;4913539;29;20048;-68
2023/03/28 09:17:28;;;;;;;2.40;1.80;;;;;;;8.34;82.63;99628.59;4820179;29;20559;-69
2023/03/28 09:20:19;;;;;;;2.28;1.77;;;;;;;8.50;82.50;99635.13;4820681;29;20057;-70
2023/03/28 09:22:54;;;;;;;3.78;1.63;;;;;;;8.69;79.97;99630.56;4820517;29;20148;-71
2023/03/28 09:25:45;;;;;;;2.90;1.98;;;;;;;8.95;82.58;99625.31;4820700;29;20056;-70
2023/03/28 09:28:48;;;;;;;2.03;1.67;;;;;;;8.98;79.94;99625.41;4820391;29;20042;-70
2023/03/28 09:31:16;;;;;;;8.02;2.40;;;;;;;8.87;81.51;99613.13;4820359;29;20137;-70
2023/03/28 09:33:45;;;;;;;5.03;1.90;;;;;;;9.00;80.64;99623.78;4841862;29;20130;-71
2023/03/28 09:36:14;;;;;;;3.08;2.13;;;;;;;8.80;80.82;99590.59;4856792;29;20049;-71
2023/03/28 09:38:46;;;;;;;5.00;2.10;;;;;;;8.44;79.98;99614.31;4856947;29;20077;-68
2023/03/28 09:41:18;;;;;;;2.88;2.40;;;;;;;8.80;80.31;99603.47;4850484;29;20598;-71
2023/03/28 09:43:56;;;;;;;3.42;2.22;;;;;;;9.44;81.58;99629.31;4838388;29;20077;-72
2023/03/28 09:46:45;;;;;;;2.38;1.90;;;;;;;8.87;77.16;99648.25;4822969;29;20821;-69
2023/03/28 09:49:20;;;;;;;3.25;2.35;;;;;;;8.95;80.75;99640.75;4923089;29;20054;-68
2023/03/28 09:51:47;;;;;;;5.63;2.53;;;;;;;9.21;79.26;99628.69;4931647;29;20485;-69
2023/03/28 09:54:13;;;;;;;4.72;2.20;;;;;;;9.37;77.62;99642.84;4948847;28;20033;-68
2023/03/28 09:56:43;;;;;;;3.25;2.00;;;;;;;9.33;80.45;99590.41;5031673;28;20029;-68
2023/03/28 09:59:26;;;;;;;3.08;1.88;;;;;;;9.81;81.05;99596.81;5031350;28;20029;-69
2023/03/28 10:01:53;;;;;;;3.35;2.10;;;;;;;9.87;76.78;99651.09;5031325;28;20039;-70
2023/03/28 10:04:31;;;;;;;2.75;2.13;;;;;;;9.85;76.99;99649.31;5048383;28;20493;-68
2023/03/28 10:07:41;;;;;;;2.53;1.80;;;;;;;9.87;76.80;99664.00;5051251;28;20051;-69
2023/03/28 10:10:16;;;;;;;5.35;1.98;;;;;;;9.40;76.22;99606.88;4953703;28;20043;-74
2023/03/28 10:12:46;;;;;;;6.10;2.65;;;;;;;9.81;77.33;99614.84;4969709;28;20628;-72
2023/03/28 10:15:29;;;;;;;5.47;2.00;;;;;;;9.78;73.98;99671.50;4968843;28;20085;-68
2023/03/28 10:17:54;;;;;;;1.88;1.58;;;;;;;9.66;75.58;99625.63;4969438;28;20059;-69
2023/03/28 10:20:22;;;;;;;5.30;2.30;;;;;;;10.33;77.26;99635.03;4969848;28;20069;-69
2023/03/28 10:22:50;;;;;;;4.05;1.88;;;;;;;9.98;76.60;99591.19;4953361;28;20042;-70
2023/03/28 10:25:20;;;;;;;2.90;1.90;;;;;;;10.08;74.14;99646.47;4951775;28;20513;-68
2023/03/28 10:27:47;;;;;;;4.43;2.08;;;;;;;10.19;74.35;99645.03;4950157;28;20043;-68
2023/03/28 10:30:13;;;;;;;3.42;2.35;;;;;;;9.97;73.53;99648.75;4949956;28;20032;-72
2023/03/28 10:32:38;;;;;;;2.03;1.83;;;;;;;10.10;71.85;99661.16;4950222;28;20034;-68
2023/03/28 10:35:24;;;;;;;2.25;1.58;;;;;;;9.81;73.47;99674.16;4950046;29;20050;-70
2023/03/28 10:37:53;;;;;;;2.83;1.95;;;;;;;9.81;73.20;99669.00;4949964;28;20548;-72
2023/03/28 10:40:19;;;;;;;5.23;1.70;;;;;;;9.52;74.96;99669.06;4950217;28;20043;-73
2023/03/28 10:42:48;;;;;;;1.90;1.60;;;;;;;9.70;71.72;99684.16;4949906;28;20034;-70
2023/03/28 10:45:37;;;;;;;1.98;1.50;;;;;;;9.95;72.91;99666.78;4950174;28;20027;-70
2023/03/28 10:48:21;;;;;;;3.85;1.33;;;;;;;9.89;72.51;99669.19;5022197;28;20095;-69
2023/03/28 10:50:53;;;;;;;5.50;2.05;;;;;;;9.22;71.70;99648.44;5030935;28;20112;-70
2023/03/28 10:53:36;;;;;;;3.08;1.40;;;;;;;9.43;73.26;99673.06;5030391;28;20033;-70
2023/03/28 10:56:29;;;;;;;8.98;1.80;;;;;;;9.55;74.06;99678.59;5030386;28;20033;-69
2023/03/28 10:59:42;;;;;;;2.08;1.48;;;;;;;9.62;72.61;99665.03;5029283;28;20040;-71
2023/03/28 11:02:26;;;;;;;2.67;2.10;;;;;;;9.50;70.45;99680.16;5003585;28;20045;-71
2023/03/28 11:05:20;;;;;;;2.80;1.70;;;;;;;9.49;70.71;99679.25;4996439;28;20041;-72
2023/03/28 11:07:58;;;;;;;3.30;1.50;;;;;;;9.24;69.08;99693.16;4954953;28;20053;-70
2023/03/28 11:10:42;;;;;;;3.65;1.90;;;;;;;9.49;69.85;99679.25;4985670;28;20038;-70
2023/03/28 11:13:24;;;;;;;3.47;1.42;;;;;;;9.94;69.74;99671.91;4986179;28;20030;-73
2023/03/28 11:16:29;;;;;;;2.03;1.10;;;;;;;9.71;67.98;99685.91;4986420;28;20484;-69
2023/03/28 11:19:12;;;;;;;4.57;1.67;;;;;;;9.74;69.30;99702.28;4986878;28;20088;-68
2023/03/28 11:21:58;;;;;;;3.05;1.63;;;;;;;9.59;68.29;99692.44;4987329;28;20087;-68
2023/03/28 11:24:50;;;;;;;6.60;1.50;;;;;;;9.46;68.48;99699.81;4985411;28;20050;-68
2023/03/28 11:27:45;;;;;;;2.08;1.52;;;;;;;9.20;68.49;99704.19;4990316;28;20169;-71
2023/03/28 11:30:15;;;;;;;3.97;1.73;;;;;;;9.76;69.27;99698.94;4987099;28;20046;-72
2023/03/28 11:32:47;;;;;;;;;;;;;;;9.85;67.08;99714.63;4987335;28;20432;-73
2023/03/28 11:35:18;;;;;;;11.63;1.63;;;;;;;9.45;68.34;99661.13;4991620;28;19928;-72
2023/03/28 11:38:01;;;;;;;4.30;2.15;;;;;;;9.58;64.15;99713.88;5026584;28;20037;-72
2023/03/28 11:40:35;;;;;;;3.78;1.88;;;;;;;9.45;65.28;99738.41;5051869;28;20028;-69
2023/03/28 11:43:04;;;;;;;1.45;1.35;;;;;;;9.17;63.61;99760.75;5050906;28;20039;-71
2023/03/28 11:45:36;;;;;;;2.33;1.40;;;;;;;9.31;64.10;99754.31;5053848;28;20039;-70
2023/03/28 11:48:09;;;;;;;4.60;2.72;;;;;;;9.26;65.04;99734.38;5051370;28;20028;-71
2023/03/28 11:50:55;;;;;;;3.30;1.30;;;;;;;9.29;64.85;99726.78;5053379;28;20036;-69
2023/03/28 11:53:37;;;;;;;2.80;1.65;;;;;;;9.65;64.87;99690.88;5051022;28;20078;-72
2023/03/28 11:56:08;;;;;;;2.00;1.20;;;;;;;9.53;63.84;99735.22;5051181;28;20059;-70